createdAt,value
2019-05-18T00:01:42.056Z,73.61
2019-05-18T00:04:09.486Z,73.62
2019-05-18T00:06:36.924Z,73.34
2019-05-18T00:09:04.370Z,72.52
2019-05-18T00:11:32.167Z,72.94
2019-05-18T00:13:59.621Z,73.19
2019-05-18T00:16:27.079Z,72.81
2019-05-18T00:18:54.538Z,73.19
2019-05-18T00:21:21.992Z,73.23
2019-05-18T00:23:49.444Z,73.27
2019-05-18T00:26:16.918Z,73.07
2019-05-18T00:28:44.359Z,72.98
2019-05-18T00:31:11.822Z,72.84
2019-05-18T00:33:39.261Z,73.17
2019-05-18T00:36:06.713Z,72.97
2019-05-18T00:38:34.177Z,73.07
2019-05-18T00:41:01.640Z,73.14
2019-05-18T00:43:29.087Z,72.95
2019-05-18T00:45:56.517Z,72.73
2019-05-18T00:48:23.981Z,72.39
2019-05-18T00:50:51.437Z,72.37
2019-05-18T00:53:18.877Z,73.01
2019-05-18T00:55:46.295Z,73.75
2019-05-18T00:58:13.796Z,72.82
2019-05-18T01:00:41.241Z,73.77
2019-05-18T01:03:08.705Z,73.55
2019-05-18T01:05:37.980Z,74.49
2019-05-18T01:08:03.601Z,76.17
2019-05-18T01:10:31.032Z,76.21
2019-05-18T01:12:58.482Z,76.31
2019-05-18T01:15:25.929Z,76.20
2019-05-18T01:17:57.558Z,76.20
2019-05-18T01:20:21.747Z,76.38
2019-05-18T01:22:49.204Z,75.96
2019-05-18T01:25:16.648Z,76.40
2019-05-18T01:27:44.087Z,75.52
2019-05-18T01:30:11.549Z,76.12
2019-05-18T01:32:38.992Z,75.63
2019-05-18T01:35:06.455Z,75.05
2019-05-18T01:37:33.916Z,74.75
2019-05-18T01:40:01.377Z,75.59
2019-05-18T01:42:28.807Z,75.33
2019-05-18T01:44:56.264Z,75.34
2019-05-18T01:47:23.691Z,75.04
2019-05-18T01:49:51.191Z,74.83
2019-05-18T01:52:18.617Z,74.58
2019-05-18T01:54:46.055Z,74.45
2019-05-18T01:57:13.515Z,74.27
2019-05-18T01:59:40.989Z,74.10
2019-05-18T02:02:08.462Z,73.73
2019-05-18T02:04:35.913Z,75.07
2019-05-18T02:07:03.389Z,76.02
2019-05-18T02:09:30.867Z,75.52
2019-05-18T02:11:58.305Z,75.49
2019-05-18T02:14:25.762Z,75.92
2019-05-18T02:16:53.203Z,75.88
2019-05-18T02:19:20.666Z,76.15
2019-05-18T02:21:48.075Z,75.98
2019-05-18T02:24:15.531Z,75.75
2019-05-18T02:26:42.981Z,75.31
2019-05-18T02:29:10.417Z,74.78
2019-05-18T02:31:37.899Z,74.78
2019-05-18T02:34:05.475Z,75.15
2019-05-18T02:36:32.993Z,75.23
2019-05-18T02:39:00.573Z,75.08
2019-05-18T02:41:28.025Z,74.90
2019-05-18T02:43:55.490Z,74.61
2019-05-18T02:46:22.961Z,74.52
2019-05-18T02:48:50.912Z,74.49
2019-05-18T02:51:17.837Z,75.05
2019-05-18T02:53:45.310Z,75.16
2019-05-18T02:56:12.773Z,74.88
2019-05-18T02:58:40.187Z,74.95
2019-05-18T03:01:07.621Z,74.50
2019-05-18T03:03:35.708Z,74.09
2019-05-18T03:06:03.153Z,73.92
2019-05-18T03:08:30.596Z,74.05
2019-05-18T03:10:58.027Z,74.20
2019-05-18T03:13:25.485Z,74.05
2019-05-18T03:15:52.951Z,74.07
2019-05-18T03:18:20.987Z,74.89
2019-05-18T03:20:48.442Z,74.38
2019-05-18T03:23:15.890Z,74.13
2019-05-18T03:25:43.331Z,74.55
2019-05-18T03:28:10.795Z,74.87
2019-05-18T03:30:38.260Z,75.60
2019-05-18T03:33:06.325Z,76.80
2019-05-18T03:35:33.866Z,78.59
2019-05-18T03:38:01.290Z,78.00
2019-05-18T03:40:28.748Z,76.98
2019-05-18T03:42:56.171Z,77.01
2019-05-18T03:45:23.614Z,76.56
2019-05-18T03:47:51.585Z,76.61
2019-05-18T03:50:19.044Z,76.32
2019-05-18T03:52:46.475Z,75.91
2019-05-18T03:55:15.828Z,75.99
2019-05-18T03:57:43.439Z,75.77
2019-05-18T04:00:10.918Z,75.86
2019-05-18T04:02:38.368Z,75.84
2019-05-18T04:05:05.833Z,75.91
2019-05-18T04:07:33.293Z,75.93
2019-05-18T04:10:00.765Z,75.91
2019-05-18T04:12:28.210Z,75.99
2019-05-18T04:14:55.671Z,76.12
2019-05-18T04:17:23.139Z,76.17
2019-05-18T04:19:51.470Z,76.07
2019-05-18T04:22:18.919Z,76.06
2019-05-18T04:24:46.365Z,76.10
2019-05-18T04:27:13.791Z,75.63
2019-05-18T04:29:41.244Z,75.65
2019-05-18T04:32:08.689Z,75.70
2019-05-18T04:34:36.152Z,76.04
2019-05-18T04:37:03.596Z,76.17
2019-05-18T04:39:31.036Z,76.29
2019-05-18T04:41:59.115Z,76.23
2019-05-18T04:44:26.624Z,75.86
2019-05-18T04:46:54.056Z,75.88
2019-05-18T04:49:21.516Z,75.77
2019-05-18T04:51:48.953Z,75.80
2019-05-18T04:54:17.249Z,75.90
2019-05-18T04:56:44.735Z,75.95
2019-05-18T04:59:12.175Z,76.10
2019-05-18T05:01:39.667Z,76.09
2019-05-18T05:04:07.112Z,76.14
2019-05-18T05:06:35.561Z,76.29
2019-05-18T05:09:03.114Z,76.38
2019-05-18T05:11:30.605Z,76.80
2019-05-18T05:13:58.066Z,77.01
2019-05-18T05:16:25.526Z,76.99
2019-05-18T05:18:53.289Z,77.76
2019-05-18T05:21:20.753Z,77.31
2019-05-18T05:23:48.206Z,76.89
2019-05-18T05:26:15.687Z,76.59
2019-05-18T05:28:43.102Z,76.69
2019-05-18T05:31:10.542Z,76.72
2019-05-18T05:33:37.983Z,76.65
2019-05-18T05:36:05.457Z,76.87
2019-05-18T05:38:32.932Z,76.87
2019-05-18T05:41:00.386Z,76.69
2019-05-18T05:43:28.706Z,77.27
2019-05-18T05:48:16.876Z,77.18
2019-05-18T05:50:44.309Z,77.11
2019-05-18T05:53:11.741Z,77.35
2019-05-18T05:55:40.061Z,76.99
2019-05-18T05:58:07.594Z,76.86
2019-05-18T06:00:35.008Z,77.07
2019-05-18T06:03:02.441Z,76.75
2019-05-18T06:05:29.912Z,77.03
2019-05-18T06:07:57.378Z,76.89
2019-05-18T06:10:24.891Z,77.12
2019-05-18T06:12:52.375Z,77.45
2019-05-18T06:15:19.818Z,77.86
2019-05-18T06:17:47.293Z,77.73
2019-05-18T06:20:14.730Z,77.99
2019-05-18T06:22:42.211Z,78.23
2019-05-18T06:25:09.717Z,77.82
2019-05-18T06:27:37.154Z,78.55
2019-05-18T06:30:04.634Z,78.19
2019-05-18T06:32:32.102Z,78.69
2019-05-18T06:34:59.543Z,78.60
2019-05-18T06:37:26.967Z,78.47
2019-05-18T06:39:54.738Z,79.02
2019-05-18T06:42:22.160Z,78.40
2019-05-18T06:44:50.693Z,78.50
2019-05-18T06:47:20.103Z,78.53
2019-05-18T06:49:48.252Z,78.42
2019-05-18T06:52:15.961Z,78.30
2019-05-18T06:54:44.131Z,78.35
2019-05-18T06:57:11.716Z,78.02
2019-05-18T06:59:39.155Z,77.94
2019-05-18T07:02:06.617Z,78.10
2019-05-18T07:04:34.125Z,77.96
2019-05-18T07:07:01.638Z,77.01
2019-05-18T07:09:29.076Z,76.26
2019-05-18T07:11:56.531Z,75.95
2019-05-18T07:14:26.017Z,75.84
2019-05-18T07:16:51.416Z,75.97
2019-05-18T07:19:18.983Z,76.40
2019-05-18T07:21:46.452Z,76.59
2019-05-18T07:24:13.889Z,76.00
2019-05-18T07:26:41.338Z,75.54
2019-05-18T07:29:08.762Z,75.85
2019-05-18T07:31:36.223Z,76.04
2019-05-18T07:34:04.409Z,75.98
2019-05-18T07:36:32.058Z,76.16
2019-05-18T07:38:59.490Z,76.08
2019-05-18T07:41:26.945Z,76.06
2019-05-18T07:43:58.116Z,75.55
2019-05-18T07:46:26.045Z,75.39
2019-05-18T07:48:53.517Z,75.43
2019-05-18T07:51:21.017Z,75.01
2019-05-18T07:53:48.463Z,75.85
2019-05-18T07:56:16.035Z,76.00
2019-05-18T07:58:43.575Z,75.24
2019-05-18T08:01:11.028Z,74.85
2019-05-18T08:03:39.380Z,74.33
2019-05-18T08:06:06.915Z,73.86
2019-05-18T08:08:34.348Z,74.74
2019-05-18T08:11:01.825Z,74.53
2019-05-18T08:13:29.252Z,75.38
2019-05-18T08:15:56.718Z,74.53
2019-05-18T08:18:24.164Z,74.99
2019-05-18T08:20:51.629Z,74.82
2019-05-18T08:23:19.084Z,75.25
2019-05-18T08:25:46.511Z,75.19
2019-05-18T08:28:13.947Z,75.11
2019-05-18T08:30:41.396Z,74.84
2019-05-18T08:33:08.849Z,74.89
2019-05-18T08:35:36.322Z,74.68
2019-05-18T08:38:03.799Z,74.73
2019-05-18T08:40:31.287Z,75.19
2019-05-18T08:42:58.707Z,75.00
2019-05-18T08:45:26.158Z,75.11
2019-05-18T08:47:53.575Z,74.61
2019-05-18T08:50:21.109Z,74.80
2019-05-18T08:52:48.679Z,74.80
2019-05-18T08:55:16.112Z,74.63
2019-05-18T08:57:43.561Z,74.57
2019-05-18T09:00:11.014Z,73.64
2019-05-18T09:02:38.449Z,73.68
2019-05-18T09:05:05.915Z,74.43
2019-05-18T09:07:33.359Z,73.67
2019-05-18T09:10:00.803Z,74.00
2019-05-18T09:12:28.258Z,72.90
2019-05-18T09:14:55.732Z,71.24
2019-05-18T09:17:23.211Z,72.13
2019-05-18T09:19:50.656Z,71.40
2019-05-18T09:22:23.152Z,70.95
2019-05-18T09:24:45.600Z,70.49
2019-05-18T09:27:13.055Z,71.95
2019-05-18T09:29:40.510Z,71.74
2019-05-18T09:32:07.982Z,72.13
2019-05-18T09:34:35.423Z,71.56
2019-05-18T09:37:02.930Z,70.71
2019-05-18T09:39:30.357Z,72.09
2019-05-18T09:41:59.327Z,72.17
2019-05-18T09:44:26.854Z,70.63
2019-05-18T09:46:54.314Z,68.76
2019-05-18T09:49:21.741Z,69.60
2019-05-18T09:51:49.194Z,70.66
2019-05-18T09:54:16.609Z,69.61
2019-05-18T09:56:44.043Z,69.37
2019-05-18T09:59:11.480Z,69.87
2019-05-18T10:01:38.929Z,69.94
2019-05-18T10:04:06.358Z,69.31
2019-05-18T10:06:33.810Z,68.96
2019-05-18T10:09:01.280Z,69.10
2019-05-18T10:11:29.262Z,69.43
2019-05-18T10:13:56.723Z,69.67
2019-05-18T10:16:24.153Z,69.32
2019-05-18T10:18:51.607Z,68.41
2019-05-18T10:21:19.027Z,67.30
2019-05-18T10:23:46.504Z,67.67
2019-05-18T10:26:13.961Z,67.76
2019-05-18T10:28:42.398Z,66.20
2019-05-18T10:31:09.858Z,65.36
2019-05-18T10:33:37.288Z,65.56
2019-05-18T10:36:04.709Z,66.83
2019-05-18T10:38:32.171Z,65.23
2019-05-18T10:40:59.935Z,66.60
2019-05-18T10:43:27.401Z,66.73
2019-05-18T10:45:54.862Z,67.36
2019-05-18T10:48:22.299Z,64.73
2019-05-18T10:50:49.742Z,65.69
2019-05-18T10:53:28.430Z,66.08
2019-05-18T10:55:44.663Z,65.89
2019-05-18T10:58:12.109Z,63.51
2019-05-18T11:00:39.540Z,65.51
2019-05-18T11:03:07.005Z,66.09
2019-05-18T11:05:34.459Z,64.36
2019-05-18T11:08:01.977Z,64.17
2019-05-18T11:10:29.427Z,65.38
2019-05-18T11:12:56.865Z,65.47
2019-05-18T11:15:24.503Z,65.07
2019-05-18T11:17:51.887Z,65.99
2019-05-18T11:20:19.346Z,64.97
2019-05-18T11:22:46.771Z,58.61
2019-05-18T11:25:14.261Z,63.30
2019-05-18T11:27:41.705Z,62.09
2019-05-18T11:30:09.594Z,61.73
2019-05-18T11:32:36.775Z,61.12
2019-05-18T11:35:05.033Z,61.00
2019-05-18T11:37:32.488Z,60.50
2019-05-18T11:39:59.937Z,57.52
2019-05-18T11:42:27.407Z,58.75
2019-05-18T11:44:54.844Z,58.65
2019-05-18T11:47:22.288Z,56.49
2019-05-18T11:49:49.809Z,57.20
2019-05-18T11:52:17.272Z,59.05
2019-05-18T11:54:44.723Z,57.08
2019-05-18T11:57:12.167Z,55.86
2019-05-18T11:59:39.645Z,56.65
2019-05-18T12:02:07.111Z,56.44
2019-05-18T12:04:34.563Z,58.04
2019-05-18T12:07:02.044Z,57.36
2019-05-18T12:09:29.601Z,55.70
2019-05-18T12:11:57.129Z,56.71
2019-05-18T12:14:24.562Z,56.49
2019-05-18T12:16:52.023Z,57.81
2019-05-18T12:19:19.480Z,54.58
2019-05-18T12:21:46.932Z,53.27
2019-05-18T12:24:15.964Z,52.88
2019-05-18T12:26:41.859Z,53.48
2019-05-18T12:29:09.306Z,55.47
2019-05-18T12:31:36.787Z,53.89
2019-05-18T12:34:04.224Z,55.04
2019-05-18T12:36:32.404Z,56.55
2019-05-18T12:38:59.855Z,56.48
2019-05-18T12:41:29.191Z,56.49
2019-05-18T12:43:56.715Z,57.49
2019-05-18T12:46:24.173Z,56.21
2019-05-18T12:48:51.627Z,55.67
2019-05-18T12:51:19.085Z,56.08
2019-05-18T12:53:46.548Z,56.80
2019-05-18T12:56:14.021Z,54.96
2019-05-18T12:58:41.456Z,54.68
2019-05-18T13:01:08.929Z,54.80
2019-05-18T13:03:36.391Z,54.02
2019-05-18T13:06:03.831Z,54.81
2019-05-18T13:08:31.294Z,55.36
2019-05-18T13:10:58.723Z,55.51
2019-05-18T13:13:26.184Z,53.89
2019-05-18T13:15:53.653Z,49.70
2019-05-18T13:18:21.109Z,51.38
2019-05-18T13:20:48.586Z,53.02
2019-05-18T13:23:16.077Z,52.89
2019-05-18T13:25:43.545Z,52.98
2019-05-18T13:28:11.032Z,53.44
2019-05-18T13:30:38.458Z,55.28
2019-05-18T13:33:10.908Z,55.11
2019-05-18T13:35:38.367Z,55.79
2019-05-18T13:38:05.824Z,56.22
2019-05-18T13:40:33.866Z,56.35
2019-05-18T13:43:01.337Z,55.38
2019-05-18T13:45:28.807Z,54.39
2019-05-18T13:47:56.255Z,53.44
2019-05-18T13:50:24.646Z,53.16
2019-05-18T13:52:52.202Z,52.30
2019-05-18T13:55:19.644Z,54.03
2019-05-18T13:57:47.085Z,50.89
2019-05-18T14:00:14.529Z,49.19
2019-05-18T14:02:42.945Z,50.17
2019-05-18T14:05:10.467Z,49.97
2019-05-18T14:07:37.904Z,52.11
2019-05-18T14:10:06.995Z,52.43
2019-05-18T14:12:34.471Z,49.43
2019-05-18T14:15:02.814Z,51.54
2019-05-18T14:17:30.382Z,52.85
2019-05-18T14:19:57.835Z,54.02
2019-05-18T14:22:25.326Z,54.86
2019-05-18T14:24:52.738Z,55.67
2019-05-18T14:27:20.180Z,56.47
2019-05-18T14:29:47.651Z,55.25
2019-05-18T14:32:15.093Z,55.52
2019-05-18T14:34:42.548Z,55.08
2019-05-18T14:37:11.630Z,54.43
2019-05-18T14:39:39.220Z,53.99
2019-05-18T14:42:06.638Z,52.49
2019-05-18T14:44:35.025Z,51.61
2019-05-18T14:47:02.502Z,51.77
2019-05-18T14:49:30.603Z,54.27
2019-05-18T14:51:58.066Z,56.79
2019-05-18T14:54:25.854Z,58.16
2019-05-18T14:56:53.092Z,60.48
2019-05-18T14:59:20.531Z,59.53
2019-05-18T15:01:47.975Z,60.39
2019-05-18T15:04:15.458Z,60.83
2019-05-18T15:06:42.920Z,59.37
2019-05-18T15:09:10.345Z,58.25
2019-05-18T15:11:37.787Z,58.06
2019-05-18T15:14:05.794Z,58.25
2019-05-18T15:16:33.230Z,57.98
2019-05-18T15:19:00.691Z,58.98
2019-05-18T15:21:28.141Z,58.15
2019-05-18T15:23:55.621Z,57.09
2019-05-18T15:26:23.047Z,57.11
2019-05-18T15:28:50.496Z,58.08
2019-05-18T15:31:19.811Z,57.93
2019-05-18T15:33:47.269Z,56.84
2019-05-18T15:36:17.076Z,56.33
2019-05-18T15:38:44.512Z,54.03
2019-05-18T15:41:15.700Z,53.75
2019-05-18T15:43:43.169Z,53.94
2019-05-18T15:46:10.636Z,54.73
2019-05-18T15:51:07.411Z,53.91
2019-05-18T15:53:34.896Z,54.13
2019-05-18T15:56:05.939Z,53.63
2019-05-18T15:58:29.826Z,54.09
2019-05-18T16:00:57.254Z,56.32
2019-05-18T16:03:24.702Z,55.30
2019-05-18T16:05:52.131Z,54.30
2019-05-18T16:08:19.609Z,54.02
2019-05-18T16:10:47.067Z,54.03
2019-05-18T16:13:14.528Z,53.85
2019-05-18T16:15:42.010Z,52.57
2019-05-18T16:18:09.468Z,53.06
2019-05-18T16:20:36.990Z,52.76
2019-05-18T16:23:04.498Z,52.95
2019-05-18T16:25:31.937Z,53.43
2019-05-18T16:27:59.377Z,53.48
2019-05-18T16:30:26.825Z,53.05
2019-05-18T16:32:54.307Z,52.77
2019-05-18T16:35:21.777Z,53.34
2019-05-18T16:37:49.583Z,52.93
2019-05-18T16:40:17.046Z,53.27
2019-05-18T16:42:46.488Z,53.59
2019-05-18T16:45:12.048Z,52.64
2019-05-18T16:47:39.502Z,53.07
2019-05-18T16:50:08.644Z,52.91
2019-05-18T16:52:36.214Z,53.11
2019-05-18T16:55:03.681Z,53.52
2019-05-18T16:57:31.132Z,53.24
2019-05-18T16:59:58.849Z,53.73
2019-05-18T17:02:31.567Z,52.58
2019-05-18T17:04:53.992Z,53.07
2019-05-18T17:07:21.445Z,53.93
2019-05-18T17:09:48.880Z,53.70
2019-05-18T17:12:16.335Z,55.70
2019-05-18T17:14:43.813Z,56.17
2019-05-18T17:17:11.252Z,55.43
2019-05-18T17:19:38.836Z,54.93
2019-05-18T17:22:06.279Z,55.51
2019-05-18T17:24:33.796Z,55.86
2019-05-18T17:27:01.262Z,55.93
2019-05-18T17:29:28.683Z,55.67
2019-05-18T17:31:56.138Z,55.34
2019-05-18T17:34:23.597Z,55.42
2019-05-18T17:36:52.507Z,55.72
2019-05-18T17:39:18.511Z,55.44
2019-05-18T17:41:45.945Z,56.34
2019-05-18T17:44:13.360Z,56.71
2019-05-18T17:46:40.793Z,56.54
2019-05-18T17:49:24.630Z,56.25
2019-05-18T17:51:36.260Z,55.70
2019-05-18T17:54:03.682Z,55.75
2019-05-18T17:56:31.121Z,55.93
2019-05-18T17:58:59.453Z,55.54
2019-05-18T18:01:27.011Z,55.64
2019-05-18T18:03:54.427Z,55.30
2019-05-18T18:06:21.901Z,56.14
2019-05-18T18:08:49.320Z,56.29
2019-05-18T18:11:16.762Z,54.50
2019-05-18T18:13:44.333Z,54.68
2019-05-18T18:16:11.787Z,55.21
2019-05-18T18:18:39.225Z,54.26
2019-05-18T18:21:06.676Z,53.48
2019-05-18T18:23:34.105Z,54.33
2019-05-18T18:26:01.558Z,54.18
2019-05-18T18:28:29.007Z,55.38
2019-05-18T18:30:56.489Z,54.17
2019-05-18T18:33:23.944Z,53.52
2019-05-18T18:35:51.372Z,53.60
2019-05-18T18:38:18.813Z,53.75
2019-05-18T18:40:46.271Z,53.31
2019-05-18T18:43:13.711Z,54.37
2019-05-18T18:45:41.119Z,54.47
2019-05-18T18:48:08.574Z,54.61
2019-05-18T18:50:36.164Z,55.47
2019-05-18T18:53:03.663Z,55.86
2019-05-18T18:55:31.111Z,55.93
2019-05-18T18:57:58.557Z,56.00
2019-05-18T19:00:25.994Z,56.89
2019-05-18T19:02:53.643Z,57.38
2019-05-18T19:05:21.068Z,57.46
2019-05-18T19:07:48.613Z,57.13
2019-05-18T19:10:16.047Z,57.60
2019-05-18T19:12:43.484Z,57.89
2019-05-18T19:15:10.951Z,58.14
2019-05-18T19:17:38.398Z,58.68
2019-05-18T19:20:05.842Z,58.35
2019-05-18T19:22:33.306Z,59.16
2019-05-18T19:25:00.764Z,59.70
2019-05-18T19:27:28.209Z,59.46
2019-05-18T19:29:55.664Z,59.57
2019-05-18T19:32:23.110Z,59.27
2019-05-18T19:34:50.616Z,60.03
2019-05-18T19:37:18.055Z,60.38
2019-05-18T19:39:46.227Z,60.86
2019-05-18T19:42:13.664Z,61.35
2019-05-18T19:44:41.123Z,61.29
2019-05-18T19:47:08.649Z,61.60
2019-05-18T19:49:36.256Z,62.24
2019-05-18T19:52:04.491Z,62.17
2019-05-18T19:54:31.941Z,62.04
2019-05-18T19:56:59.385Z,61.89
2019-05-18T19:59:26.842Z,62.43
2019-05-18T20:01:54.301Z,61.94
2019-05-18T20:04:21.856Z,60.96
2019-05-18T20:06:49.306Z,62.09
2019-05-18T20:09:16.757Z,62.11
2019-05-18T20:11:44.203Z,61.86
2019-05-18T20:14:11.998Z,62.69
2019-05-18T20:16:39.480Z,62.69
2019-05-18T20:19:06.921Z,62.14
2019-05-18T20:21:35.344Z,62.26
2019-05-18T20:24:02.872Z,61.88
2019-05-18T20:26:30.300Z,61.44
2019-05-18T20:28:57.769Z,62.04
2019-05-18T20:31:25.205Z,63.93
2019-05-18T20:33:52.743Z,63.89
2019-05-18T20:36:20.170Z,62.81
2019-05-18T20:38:47.598Z,63.18
2019-05-18T20:41:15.234Z,64.64
2019-05-18T20:43:43.345Z,64.05
2019-05-18T20:46:10.805Z,64.68
2019-05-18T20:48:38.242Z,64.72
2019-05-18T20:51:05.710Z,63.23
2019-05-18T20:53:33.365Z,62.77
2019-05-18T20:56:01.025Z,63.53
2019-05-18T20:58:39.472Z,66.15
2019-05-18T21:00:56.031Z,66.18
2019-05-18T21:03:23.458Z,64.67
2019-05-18T21:05:50.920Z,65.95
2019-05-18T21:08:18.386Z,65.07
2019-05-18T21:10:45.833Z,65.87
2019-05-18T21:13:13.270Z,66.27
2019-05-18T21:15:40.737Z,66.15
2019-05-18T21:18:08.243Z,65.77
2019-05-18T21:20:36.347Z,66.85
2019-05-18T21:23:04.155Z,66.54
2019-05-18T21:25:31.581Z,68.72
2019-05-18T21:27:59.091Z,68.45
2019-05-18T21:30:26.554Z,68.43
2019-05-18T21:35:16.563Z,67.38
2019-05-18T21:37:44.024Z,66.39
2019-05-18T21:40:11.444Z,66.47
2019-05-18T21:42:38.900Z,68.13
2019-05-18T21:45:06.330Z,70.08
2019-05-18T21:47:33.820Z,69.55
2019-05-18T21:50:01.367Z,68.14
2019-05-18T21:52:28.804Z,67.50
2019-05-18T21:54:56.220Z,67.27
2019-05-18T21:57:23.969Z,68.21
2019-05-18T21:59:51.407Z,67.62
2019-05-18T22:02:19.237Z,69.11
2019-05-18T22:04:46.697Z,69.73
2019-05-18T22:07:14.120Z,71.04
2019-05-18T22:09:41.533Z,69.45
2019-05-18T22:12:09.097Z,68.76
2019-05-18T22:14:36.553Z,67.26
2019-05-18T22:17:03.994Z,66.90
2019-05-18T22:19:31.442Z,67.49
2019-05-18T22:21:59.685Z,68.05
2019-05-18T22:24:27.225Z,67.13
2019-05-18T22:26:54.659Z,66.21
2019-05-18T22:29:22.075Z,65.76
2019-05-18T22:31:49.891Z,66.12
2019-05-18T22:34:17.842Z,66.81
2019-05-18T22:36:45.309Z,67.16
2019-05-18T22:39:12.712Z,67.36
2019-05-18T22:41:40.182Z,67.46
2019-05-18T22:44:07.607Z,67.63
2019-05-18T22:46:35.062Z,68.16
2019-05-18T22:49:02.529Z,69.19
2019-05-18T22:51:29.962Z,70.26
2019-05-18T22:53:57.437Z,70.82
2019-05-18T22:56:24.911Z,69.81
2019-05-18T22:58:52.358Z,68.78
2019-05-18T23:01:20.555Z,69.78
2019-05-18T23:03:47.974Z,72.33
2019-05-18T23:06:15.422Z,71.90
2019-05-18T23:08:42.894Z,72.02
2019-05-18T23:11:10.327Z,73.55
2019-05-18T23:13:37.773Z,74.11
2019-05-18T23:16:05.226Z,74.04
2019-05-18T23:18:32.677Z,74.33
2019-05-18T23:21:00.111Z,72.82
2019-05-18T23:23:27.546Z,71.92
2019-05-18T23:25:54.978Z,71.97
2019-05-18T23:28:22.435Z,72.36
2019-05-18T23:33:10.201Z,73.61
2019-05-18T23:35:37.646Z,75.73
2019-05-18T23:38:05.105Z,76.87
2019-05-18T23:40:32.592Z,78.32
2019-05-18T23:43:00.081Z,78.81
2019-05-18T23:45:27.527Z,79.50
2019-05-18T23:47:54.954Z,79.12
2019-05-18T23:50:22.426Z,79.41
2019-05-18T23:52:49.896Z,79.78
2019-05-18T23:55:18.163Z,79.87
2019-05-18T23:57:45.726Z,78.60
